Time;durP1;ratioP1;P1;durP2;ratioP2;P2;SDS_P1;SDS_P2;PMS_P1;PMS_P2;Temp;Humidity;BMP_temperature;BMP_pressure;BME280_temperature;BME280_humidity;BME280_pressure;Samples;Min_cycle;Max_cycle;Signal;HPM_P1;HPM_P2
2022/01/29 00:01:15;;;;;;;23.90;8.40;;;;;;;;;;5051492;28;20017;-68
2022/01/29 00:03:40;;;;;;;21.38;7.70;;;;;;;;;;5051129;28;20021;-68
2022/01/29 00:06:05;;;;;;;23.80;9.10;;;;;;;;;;5051100;28;20064;-68
2022/01/29 00:08:31;;;;;;;21.55;8.70;;;;;;;;;;5050668;28;20418;-68
2022/01/29 00:11:06;;;;;;;23.35;7.75;;;;;;;;;;5051253;28;20024;-68
2022/01/29 00:13:31;;;;;;;26.50;8.77;;;;;;;;;;5051080;28;20025;-68
2022/01/29 00:15:57;;;;;;;17.15;7.53;;;;;;;;;;5050989;28;20393;-68
2022/01/29 00:18:22;;;;;;;19.70;7.97;;;;;;;;;;5051596;28;20029;-68
2022/01/29 00:20:47;;;;;;;18.83;8.13;;;;;;;;;;5050871;28;20322;-68
2022/01/29 00:23:12;;;;;;;27.48;8.50;;;;;;;;;;5050774;28;20381;-68
2022/01/29 00:25:37;;;;;;;19.07;7.13;;;;;;;;;;5055685;28;20029;-68
2022/01/29 00:28:03;;;;;;;21.97;7.73;;;;;;;;;;5050940;28;20305;-68
2022/01/29 00:30:37;;;;;;;20.35;7.78;;;;;;;;;;5052821;28;20555;-68
2022/01/29 00:33:02;;;;;;;19.23;7.40;;;;;;;;;;5050489;28;20024;-68
2022/01/29 00:35:28;;;;;;;21.45;7.18;;;;;;;;;;5050655;28;20027;-68
2022/01/29 00:37:53;;;;;;;14.77;6.90;;;;;;;;;;5049608;28;20020;-68
2022/01/29 00:40:18;;;;;;;21.35;6.78;;;;;;;;;;5050861;28;20282;-68
2022/01/29 00:42:43;;;;;;;19.15;7.18;;;;;;;;;;5050899;28;20419;-68
2022/01/29 00:45:09;;;;;;;25.45;8.13;;;;;;;;;;5050661;28;20028;-68
2022/01/29 00:47:34;;;;;;;16.38;7.35;;;;;;;;;;5050474;28;20028;-68
2022/01/29 00:49:59;;;;;;;27.38;7.97;;;;;;;;;;5048510;28;20337;-68
2022/01/29 00:52:24;;;;;;;20.40;6.70;;;;;;;;;;5049574;28;20017;-68
2022/01/29 00:54:49;;;;;;;18.30;7.45;;;;;;;;;;5050717;28;20021;-68
2022/01/29 00:57:15;;;;;;;20.83;8.30;;;;;;;;;;5049721;28;20039;-68
2022/01/29 00:59:40;;;;;;;26.73;9.10;;;;;;;;;;5049790;28;20655;-68
2022/01/29 01:02:08;;;;;;;24.25;8.57;;;;;;;;;;5050480;28;20024;-68
2022/01/29 01:04:36;;;;;;;16.98;5.80;;;;;;;;;;5050170;28;20444;-68
2022/01/29 01:07:01;;;;;;;26.67;10.38;;;;;;;;;;5049836;28;20025;-68
2022/01/29 01:09:27;;;;;;;20.73;8.77;;;;;;;;;;5049983;28;20024;-68
2022/01/29 01:11:52;;;;;;;28.67;13.87;;;;;;;;;;5054325;28;20484;-68
2022/01/29 01:14:17;;;;;;;17.37;6.77;;;;;;;;;;5051793;28;20267;-68
2022/01/29 01:16:42;;;;;;;33.45;9.00;;;;;;;;;;5049496;28;20682;-68
2022/01/29 01:19:07;;;;;;;17.88;7.65;;;;;;;;;;5049443;28;20049;-68
2022/01/29 01:21:32;;;;;;;32.57;12.50;;;;;;;;;;5050016;28;20082;-68
2022/01/29 01:23:58;;;;;;;24.47;7.63;;;;;;;;;;5050000;28;20744;-68
2022/01/29 01:26:23;;;;;;;34.53;12.57;;;;;;;;;;5049757;28;20262;-68
2022/01/29 01:28:48;;;;;;;34.78;12.57;;;;;;;;;;5049693;28;20024;-68
2022/01/29 01:31:13;;;;;;;24.67;10.80;;;;;;;;;;5049362;28;20021;-68
2022/01/29 01:33:38;;;;;;;34.53;10.40;;;;;;;;;;5049839;28;20048;-67
2022/01/29 01:36:06;;;;;;;31.20;8.90;;;;;;;;;;5049511;28;20036;-67
2022/01/29 01:38:40;;;;;;;23.30;7.72;;;;;;;;;;5049517;28;20025;-68
2022/01/29 01:41:09;;;;;;;34.50;13.05;;;;;;;;;;5049810;28;20400;-68
2022/01/29 01:43:34;;;;;;;35.22;14.13;;;;;;;;;;5049660;28;20488;-68
2022/01/29 01:46:00;;;;;;;38.63;13.82;;;;;;;;;;5050990;28;20108;-67
2022/01/29 01:48:25;;;;;;;31.95;10.68;;;;;;;;;;5049314;28;20051;-68
2022/01/29 01:50:50;;;;;;;32.88;13.15;;;;;;;;;;5049795;28;20021;-68
2022/01/29 01:53:15;;;;;;;43.58;14.20;;;;;;;;;;5053637;28;20487;-68
2022/01/29 01:55:41;;;;;;;51.58;12.98;;;;;;;;;;5048076;28;20028;-68
2022/01/29 01:58:06;;;;;;;41.42;12.38;;;;;;;;;;5048327;28;20059;-68
2022/01/29 02:00:32;;;;;;;36.95;14.05;;;;;;;;;;5054283;28;20047;-68
2022/01/29 02:02:57;;;;;;;39.20;9.02;;;;;;;;;;5053700;28;20033;-68
2022/01/29 02:05:23;;;;;;;40.05;12.32;;;;;;;;;;5053102;28;20016;-67
2022/01/29 02:07:48;;;;;;;40.25;13.55;;;;;;;;;;5053256;28;20067;-67
2022/01/29 02:10:14;;;;;;;31.55;13.43;;;;;;;;;;5053386;28;20060;-67
2022/01/29 02:12:46;;;;;;;17.20;7.22;;;;;;;;;;5053483;28;20357;-67
2022/01/29 02:15:11;;;;;;;39.20;13.48;;;;;;;;;;5052551;28;20044;-67
2022/01/29 02:17:36;;;;;;;34.15;10.02;;;;;;;;;;5053093;28;20021;-68
2022/01/29 02:20:02;;;;;;;36.55;10.10;;;;;;;;;;5053014;28;20028;-68
2022/01/29 02:22:27;;;;;;;39.13;13.77;;;;;;;;;;5052025;28;20066;-68
2022/01/29 02:24:52;;;;;;;24.98;9.43;;;;;;;;;;5052814;28;20093;-68
2022/01/29 02:27:17;;;;;;;33.00;12.50;;;;;;;;;;5052730;28;20051;-68
2022/01/29 02:29:44;;;;;;;38.67;16.33;;;;;;;;;;5065324;28;20270;-68
2022/01/29 02:32:09;;;;;;;38.08;13.65;;;;;;;;;;5060955;28;20313;-68
2022/01/29 02:34:34;;;;;;;28.80;10.45;;;;;;;;;;5053063;28;20029;-67
2022/01/29 02:37:00;;;;;;;27.90;10.43;;;;;;;;;;5052962;28;20029;-68
2022/01/29 02:39:25;;;;;;;31.50;11.82;;;;;;;;;;5052542;28;20025;-67
2022/01/29 02:41:51;;;;;;;21.48;8.27;;;;;;;;;;5052231;28;20043;-67
2022/01/29 02:44:20;;;;;;;35.25;11.90;;;;;;;;;;5065339;28;20078;-67
2022/01/29 02:46:54;;;;;;;27.92;11.10;;;;;;;;;;5052459;28;20013;-67
2022/01/29 02:49:26;;;;;;;39.13;14.27;;;;;;;;;;5052253;28;20107;-67
2022/01/29 02:51:53;;;;;;;29.42;10.93;;;;;;;;;;5052519;28;20385;-67
2022/01/29 02:54:18;;;;;;;30.95;11.35;;;;;;;;;;5052422;28;20021;-67
2022/01/29 02:56:44;;;;;;;26.90;10.35;;;;;;;;;;5088022;23;20543;-67
2022/01/29 02:59:09;;;;;;;36.30;12.57;;;;;;;;;;5112623;28;20041;-67
2022/01/29 03:01:35;;;;;;;34.42;10.40;;;;;;;;;;5112108;28;20027;-68
2022/01/29 03:04:00;;;;;;;37.85;13.70;;;;;;;;;;5112669;28;20027;-67
2022/01/29 03:06:25;;;;;;;38.20;14.85;;;;;;;;;;5105232;28;20107;-67
2022/01/29 03:08:50;;;;;;;34.85;13.90;;;;;;;;;;5092717;28;20384;-68
2022/01/29 03:11:19;;;;;;;41.40;13.90;;;;;;;;;;5092763;28;20016;-68
2022/01/29 03:13:45;;;;;;;44.92;15.40;;;;;;;;;;5092721;28;20258;-68
2022/01/29 03:16:10;;;;;;;34.38;14.13;;;;;;;;;;5092157;28;20016;-68
2022/01/29 03:18:35;;;;;;;43.90;15.65;;;;;;;;;;5092067;28;20020;-68
2022/01/29 03:21:00;;;;;;;35.08;14.02;;;;;;;;;;5092546;28;20024;-67
2022/01/29 03:23:25;;;;;;;23.20;8.87;;;;;;;;;;5092889;28;20028;-68
2022/01/29 03:25:50;;;;;;;36.78;13.23;;;;;;;;;;5091878;28;20261;-68
2022/01/29 03:28:16;;;;;;;27.08;11.00;;;;;;;;;;5091871;28;20012;-67
2022/01/29 03:30:41;;;;;;;33.63;10.45;;;;;;;;;;5091945;28;20059;-67
2022/01/29 03:33:06;;;;;;;38.17;14.35;;;;;;;;;;5092120;28;20031;-68
2022/01/29 03:35:31;;;;;;;40.75;14.63;;;;;;;;;;5092201;28;20515;-67
2022/01/29 03:37:56;;;;;;;39.95;17.30;;;;;;;;;;5091405;28;20032;-67
2022/01/29 03:40:22;;;;;;;47.05;15.40;;;;;;;;;;5090961;28;20024;-67
2022/01/29 03:42:59;;;;;;;51.75;17.98;;;;;;;;;;5090036;28;20024;-67
2022/01/29 03:45:25;;;;;;;39.80;16.00;;;;;;;;;;5090604;28;20091;-67
2022/01/29 03:47:50;;;;;;;28.75;9.55;;;;;;;;;;5091319;28;20112;-68
2022/01/29 03:50:15;;;;;;;39.65;14.95;;;;;;;;;;5091457;28;20051;-68
2022/01/29 03:52:40;;;;;;;41.47;14.52;;;;;;;;;;5073417;28;20027;-68
2022/01/29 03:55:06;;;;;;;46.92;15.68;;;;;;;;;;5089198;28;20020;-67
2022/01/29 03:57:31;;;;;;;46.67;14.88;;;;;;;;;;5086485;28;20042;-67
2022/01/29 03:59:56;;;;;;;40.75;16.75;;;;;;;;;;5091408;28;20084;-67
2022/01/29 04:02:21;;;;;;;44.43;16.90;;;;;;;;;;5091422;28;20020;-67
2022/01/29 04:04:46;;;;;;;56.25;17.63;;;;;;;;;;5091252;28;20731;-67
2022/01/29 04:07:12;;;;;;;50.72;16.63;;;;;;;;;;5091252;28;20032;-67
2022/01/29 04:09:39;;;;;;;43.45;15.40;;;;;;;;;;5091583;28;20048;-67
2022/01/29 04:12:04;;;;;;;36.53;11.85;;;;;;;;;;5091052;28;20390;-68
2022/01/29 04:14:38;;;;;;;22.77;7.25;;;;;;;;;;5072665;28;20467;-67
2022/01/29 04:17:04;;;;;;;28.95;11.77;;;;;;;;;;5090831;28;20388;-68
2022/01/29 04:19:29;;;;;;;35.58;14.77;;;;;;;;;;5077225;28;20012;-68
2022/01/29 04:21:54;;;;;;;39.97;13.00;;;;;;;;;;5090728;28;20016;-68
2022/01/29 04:24:19;;;;;;;38.97;14.93;;;;;;;;;;5091098;28;20024;-67
2022/01/29 04:26:45;;;;;;;28.42;11.00;;;;;;;;;;5090324;28;20093;-67
2022/01/29 04:29:10;;;;;;;43.85;15.88;;;;;;;;;;5089718;28;20030;-67
2022/01/29 04:31:58;;;;;;;35.45;14.80;;;;;;;;;;5091178;28;20024;-67
2022/01/29 04:34:24;;;;;;;27.70;11.48;;;;;;;;;;5090678;28;20052;-67
2022/01/29 04:36:49;;;;;;;31.85;12.45;;;;;;;;;;5090531;28;20340;-67
2022/01/29 04:39:14;;;;;;;43.72;15.25;;;;;;;;;;5090052;28;20024;-68
2022/01/29 04:41:39;;;;;;;38.10;15.80;;;;;;;;;;5091106;28;20020;-68
2022/01/29 04:44:05;;;;;;;34.15;14.65;;;;;;;;;;5090824;28;20020;-68
2022/01/29 04:46:30;;;;;;;40.08;15.88;;;;;;;;;;5090785;28;20376;-68
2022/01/29 04:48:55;;;;;;;26.77;8.77;;;;;;;;;;5090012;28;20324;-67
2022/01/29 04:51:21;;;;;;;34.88;12.35;;;;;;;;;;5090366;28;20642;-67
2022/01/29 04:53:46;;;;;;;26.92;11.63;;;;;;;;;;5072341;28;20130;-67
2022/01/29 04:56:11;;;;;;;20.63;8.90;;;;;;;;;;5090624;28;20031;-67
2022/01/29 04:58:37;;;;;;;29.67;12.65;;;;;;;;;;5090728;28;20027;-67
2022/01/29 05:01:03;;;;;;;29.25;10.52;;;;;;;;;;5090393;28;20232;-67
2022/01/29 05:03:29;;;;;;;30.95;10.90;;;;;;;;;;5090652;28;20038;-67
2022/01/29 05:05:54;;;;;;;34.67;14.55;;;;;;;;;;5090207;28;20016;-67
2022/01/29 05:08:20;;;;;;;35.28;15.18;;;;;;;;;;5071602;28;20035;-67
2022/01/29 05:10:45;;;;;;;35.30;13.15;;;;;;;;;;5090497;28;20027;-67
2022/01/29 05:13:14;;;;;;;37.53;12.75;;;;;;;;;;5090022;28;20085;-67
2022/01/29 05:16:22;;;;;;;27.80;12.07;;;;;;;;;;5090409;28;20012;-67
2022/01/29 05:26:56;;;;;;;31.33;13.15;;;;;;;;;;5090155;28;20039;-67
2022/01/29 05:29:21;;;;;;;31.05;13.40;;;;;;;;;;5089852;28;20051;-67
2022/01/29 05:31:51;;;;;;;27.85;10.90;;;;;;;;;;5090193;28;20052;-67
2022/01/29 05:34:16;;;;;;;31.17;11.60;;;;;;;;;;5081173;28;20020;-67
2022/01/29 05:36:41;;;;;;;27.25;10.93;;;;;;;;;;5090054;28;20032;-67
2022/01/29 05:39:06;;;;;;;30.70;12.97;;;;;;;;;;5089809;28;20057;-67
2022/01/29 05:41:32;;;;;;;31.20;10.48;;;;;;;;;;5090390;28;20623;-67
2022/01/29 05:43:57;;;;;;;41.67;14.23;;;;;;;;;;5089840;28;20461;-67
2022/01/29 05:46:22;;;;;;;25.95;9.35;;;;;;;;;;5089183;28;20460;-67
2022/01/29 05:48:47;;;;;;;28.27;11.68;;;;;;;;;;5089507;28;20035;-67
2022/01/29 05:51:12;;;;;;;27.75;10.95;;;;;;;;;;5089740;28;20020;-67
2022/01/29 05:53:38;;;;;;;30.80;10.45;;;;;;;;;;5089538;28;20625;-67
2022/01/29 05:56:03;;;;;;;23.40;10.10;;;;;;;;;;5089715;28;20039;-67
2022/01/29 05:58:28;;;;;;;25.00;9.80;;;;;;;;;;5089660;28;20027;-67
2022/01/29 06:00:54;;;;;;;30.05;9.68;;;;;;;;;;5089947;28;20034;-67
2022/01/29 06:03:19;;;;;;;27.60;11.05;;;;;;;;;;5089804;28;20024;-67
2022/01/29 06:05:44;;;;;;;28.67;12.00;;;;;;;;;;5089471;28;20291;-67
2022/01/29 06:08:09;;;;;;;26.33;8.50;;;;;;;;;;5089457;28;20468;-67
2022/01/29 06:10:35;;;;;;;29.50;10.05;;;;;;;;;;5089641;28;20024;-67
2022/01/29 06:13:10;;;;;;;8.25;4.70;;;;;;;;;;5089876;28;20388;-67
2022/01/29 06:15:41;;;;;;;19.65;7.82;;;;;;;;;;5088859;28;20020;-67
2022/01/29 06:18:07;;;;;;;26.92;9.18;;;;;;;;;;5089737;28;20059;-67
2022/01/29 06:20:33;;;;;;;20.42;7.68;;;;;;;;;;5085222;28;20052;-67
2022/01/29 06:22:58;;;;;;;24.95;9.68;;;;;;;;;;5089406;28;20020;-67
2022/01/29 06:25:24;;;;;;;20.55;8.48;;;;;;;;;;5095010;28;20097;-67
2022/01/29 06:27:49;;;;;;;17.15;6.68;;;;;;;;;;5089307;28;20020;-67
2022/01/29 06:30:15;;;;;;;26.65;9.10;;;;;;;;;;5088492;28;20024;-67
2022/01/29 06:32:40;;;;;;;8.43;4.13;;;;;;;;;;5089260;28;20024;-67
2022/01/29 06:35:05;;;;;;;14.75;5.60;;;;;;;;;;5088992;28;20461;-67
2022/01/29 06:37:31;;;;;;;9.60;3.83;;;;;;;;;;5090488;28;20023;-67
2022/01/29 06:39:56;;;;;;;16.15;5.70;;;;;;;;;;5085996;28;20020;-67
2022/01/29 06:42:21;;;;;;;13.57;5.78;;;;;;;;;;5084320;28;20056;-67
2022/01/29 06:44:46;;;;;;;11.27;5.20;;;;;;;;;;5077526;28;20020;-67
2022/01/29 06:47:12;;;;;;;15.45;6.53;;;;;;;;;;5077379;28;20020;-67
2022/01/29 06:49:37;;;;;;;12.65;5.20;;;;;;;;;;5076289;28;20027;-67
2022/01/29 06:52:02;;;;;;;9.70;3.88;;;;;;;;;;5074378;28;20078;-67
2022/01/29 06:54:27;;;;;;;24.48;4.85;;;;;;;;;;5073378;28;20016;-67
2022/01/29 06:56:52;;;;;;;11.10;5.13;;;;;;;;;;5080747;28;20158;-67
2022/01/29 06:59:18;;;;;;;10.85;5.50;;;;;;;;;;5084933;28;20031;-67
2022/01/29 07:01:43;;;;;;;6.70;3.47;;;;;;;;;;5089782;28;20073;-67
2022/01/29 07:04:08;;;;;;;8.73;4.35;;;;;;;;;;5078358;28;20258;-67
2022/01/29 07:06:33;;;;;;;5.95;3.15;;;;;;;;;;5087712;28;20027;-67
2022/01/29 07:08:59;;;;;;;9.80;5.18;;;;;;;;;;5073222;28;20016;-67
2022/01/29 07:11:24;;;;;;;10.50;4.88;;;;;;;;;;5089661;28;20020;-67
2022/01/29 07:14:00;;;;;;;12.95;6.60;;;;;;;;;;5091447;28;20019;-67
2022/01/29 07:16:25;;;;;;;13.05;6.60;;;;;;;;;;5090363;28;20044;-67
2022/01/29 07:18:50;;;;;;;9.27;4.63;;;;;;;;;;5089788;28;20051;-67
2022/01/29 07:21:16;;;;;;;8.77;4.10;;;;;;;;;;5079550;28;20028;-67
2022/01/29 07:23:41;;;;;;;11.02;5.70;;;;;;;;;;5083697;28;20280;-67
2022/01/29 07:26:06;;;;;;;15.20;8.17;;;;;;;;;;5083322;28;20028;-67
2022/01/29 07:28:32;;;;;;;12.23;5.78;;;;;;;;;;5089607;28;20266;-67
2022/01/29 07:30:57;;;;;;;14.52;7.30;;;;;;;;;;5089792;28;20063;-67
2022/01/29 07:33:22;;;;;;;9.70;5.13;;;;;;;;;;5089681;28;20050;-67
2022/01/29 07:35:47;;;;;;;5.53;2.85;;;;;;;;;;5089906;28;20032;-67
2022/01/29 07:38:14;;;;;;;11.37;6.20;;;;;;;;;;5089206;28;20063;-67
2022/01/29 07:40:39;;;;;;;16.52;8.68;;;;;;;;;;5089553;28;20288;-67
2022/01/29 07:43:04;;;;;;;12.27;7.10;;;;;;;;;;5089506;28;20020;-67
2022/01/29 07:45:29;;;;;;;12.47;5.53;;;;;;;;;;5090306;28;20077;-67
2022/01/29 07:47:55;;;;;;;13.40;5.20;;;;;;;;;;5083792;28;20274;-67
2022/01/29 07:50:20;;;;;;;7.75;3.88;;;;;;;;;;5087717;28;20174;-67
2022/01/29 07:52:45;;;;;;;12.45;6.10;;;;;;;;;;5082573;28;20023;-67
2022/01/29 07:55:10;;;;;;;13.18;5.43;;;;;;;;;;5085705;28;20027;-67
2022/01/29 07:57:35;;;;;;;16.23;7.13;;;;;;;;;;5090337;28;20170;-67
2022/01/29 08:00:01;;;;;;;11.57;6.40;;;;;;;;;;5091418;28;20028;-67
2022/01/29 08:02:26;;;;;;;13.23;4.60;;;;;;;;;;5091306;28;20270;-67
2022/01/29 08:04:51;;;;;;;11.83;6.33;;;;;;;;;;5091518;28;20015;-67
2022/01/29 08:07:16;;;;;;;12.00;7.68;;;;;;;;;;5090726;28;20284;-67
2022/01/29 08:09:41;;;;;;;18.08;7.45;;;;;;;;;;5077937;28;20051;-67
2022/01/29 08:12:07;;;;;;;7.68;4.50;;;;;;;;;;5090651;28;20483;-67
2022/01/29 08:14:32;;;;;;;10.32;5.22;;;;;;;;;;5090824;28;20392;-67
2022/01/29 08:16:57;;;;;;;17.77;6.80;;;;;;;;;;5072905;28;20085;-67
2022/01/29 08:19:22;;;;;;;9.50;5.20;;;;;;;;;;5090761;28;20657;-67
2022/01/29 08:21:48;;;;;;;11.48;6.25;;;;;;;;;;5091316;28;20292;-67
2022/01/29 08:24:13;;;;;;;9.40;4.93;;;;;;;;;;5090707;28;20043;-67
2022/01/29 08:26:38;;;;;;;12.35;5.38;;;;;;;;;;5090841;28;20254;-67
2022/01/29 08:29:03;;;;;;;9.52;4.57;;;;;;;;;;5090814;28;20281;-67
2022/01/29 08:31:29;;;;;;;14.47;6.77;;;;;;;;;;5090607;28;20077;-67
2022/01/29 08:33:54;;;;;;;15.70;7.78;;;;;;;;;;5089365;28;20302;-67
2022/01/29 08:36:19;;;;;;;12.80;6.43;;;;;;;;;;5090794;28;20606;-67
2022/01/29 08:38:44;;;;;;;6.95;4.05;;;;;;;;;;5090639;28;20028;-67
2022/01/29 08:41:10;;;;;;;12.33;6.50;;;;;;;;;;5090594;28;20027;-67
2022/01/29 08:43:35;;;;;;;7.85;4.53;;;;;;;;;;5085299;28;20369;-67
2022/01/29 08:46:01;;;;;;;14.32;8.02;;;;;;;;;;5072619;28;20020;-67
2022/01/29 08:48:27;;;;;;;15.00;7.35;;;;;;;;;;5078825;28;20643;-67
2022/01/29 08:50:52;;;;;;;12.23;5.40;;;;;;;;;;5084460;28;20031;-67
2022/01/29 08:53:18;;;;;;;8.85;5.40;;;;;;;;;;5088490;28;20507;-67
2022/01/29 08:55:43;;;;;;;10.10;5.88;;;;;;;;;;5088178;28;20382;-67
2022/01/29 08:58:09;;;;;;;11.93;6.90;;;;;;;;;;5086949;28;20063;-66
2022/01/29 09:00:38;;;;;;;11.13;5.97;;;;;;;;;;5087237;28;20062;-67
2022/01/29 09:03:04;;;;;;;11.93;6.80;;;;;;;;;;5087654;28;20024;-66
2022/01/29 09:05:29;;;;;;;7.88;5.28;;;;;;;;;;5084841;28;20023;-67
2022/01/29 09:07:54;;;;;;;10.57;5.95;;;;;;;;;;5087675;28;20028;-67
2022/01/29 09:10:19;;;;;;;10.80;7.00;;;;;;;;;;5088347;28;20024;-67
2022/01/29 09:12:44;;;;;;;4.07;2.63;;;;;;;;;;5087912;28;20016;-67
2022/01/29 09:15:10;;;;;;;6.85;4.47;;;;;;;;;;5088455;28;20038;-67
2022/01/29 09:17:35;;;;;;;10.93;5.82;;;;;;;;;;5087758;28;20024;-67
2022/01/29 09:20:01;;;;;;;7.88;4.40;;;;;;;;;;5087771;28;20039;-67
2022/01/29 09:22:26;;;;;;;6.00;4.25;;;;;;;;;;5087718;28;20020;-66
2022/01/29 09:24:51;;;;;;;10.15;5.82;;;;;;;;;;5087956;28;20313;-67
2022/01/29 09:27:16;;;;;;;9.17;4.13;;;;;;;;;;5080892;28;20606;-67
2022/01/29 09:29:43;;;;;;;6.53;4.32;;;;;;;;;;5087725;28;20262;-67
2022/01/29 09:32:08;;;;;;;18.17;5.85;;;;;;;;;;5087991;28;20024;-67
2022/01/29 09:34:33;;;;;;;6.88;4.32;;;;;;;;;;5069715;28;20136;-66
2022/01/29 09:36:58;;;;;;;6.90;3.53;;;;;;;;;;5087196;28;20039;-67
2022/01/29 09:39:23;;;;;;;5.67;3.03;;;;;;;;;;5087759;28;20028;-67
2022/01/29 09:41:49;;;;;;;9.65;6.32;;;;;;;;;;5087557;28;20641;-67
2022/01/29 09:44:14;;;;;;;11.48;4.70;;;;;;;;;;5086260;28;20035;-67
2022/01/29 09:46:40;;;;;;;6.20;4.20;;;;;;;;;;5087463;28;20087;-67
2022/01/29 09:49:05;;;;;;;5.68;3.33;;;;;;;;;;5079503;28;20027;-66
2022/01/29 09:51:31;;;;;;;7.18;4.60;;;;;;;;;;5087553;28;20063;-67
2022/01/29 09:53:56;;;;;;;8.30;3.58;;;;;;;;;;5086666;28;20045;-67
2022/01/29 09:56:21;;;;;;;11.90;6.65;;;;;;;;;;5085255;28;20107;-67
2022/01/29 09:58:46;;;;;;;11.43;6.55;;;;;;;;;;5087548;28;20096;-67
2022/01/29 10:01:12;;;;;;;13.70;6.60;;;;;;;;;;5087648;28;20024;-67
2022/01/29 10:03:37;;;;;;;10.25;5.18;;;;;;;;;;5087748;28;20689;-67
2022/01/29 10:06:03;;;;;;;6.78;3.78;;;;;;;;;;5087615;28;20042;-67
2022/01/29 10:08:29;;;;;;;4.15;2.13;;;;;;;;;;5081126;28;20028;-67
2022/01/29 10:10:55;;;;;;;9.50;4.40;;;;;;;;;;5086540;28;20141;-67
2022/01/29 10:13:33;;;;;;;8.73;4.30;;;;;;;;;;5090300;28;20058;-69
2022/01/29 10:16:10;;;;;;;9.57;3.75;;;;;;;;;;5091559;28;20036;-67
2022/01/29 10:18:36;;;;;;;6.30;3.95;;;;;;;;;;5089883;28;20020;-67
2022/01/29 10:21:16;;;;;;;7.85;4.15;;;;;;;;;;5091431;28;20027;-67
2022/01/29 10:23:42;;;;;;;9.23;5.03;;;;;;;;;;5090763;28;20384;-67
2022/01/29 10:26:10;;;;;;;7.43;4.68;;;;;;;;;;5072390;28;20028;-67
2022/01/29 10:28:36;;;;;;;6.30;4.25;;;;;;;;;;5089235;28;20391;-66
2022/01/29 10:31:05;;;;;;;7.32;2.42;;;;;;;;;;5091038;28;20024;-67
2022/01/29 10:33:37;;;;;;;8.00;4.25;;;;;;;;;;5089935;28;20016;-67
2022/01/29 10:36:02;;;;;;;8.07;3.40;;;;;;;;;;5072729;28;20037;-67
2022/01/29 10:38:29;;;;;;;5.80;2.88;;;;;;;;;;5088993;28;20065;-67
2022/01/29 10:41:10;;;;;;;5.15;2.85;;;;;;;;;;5091311;28;20030;-67
2022/01/29 10:43:35;;;;;;;4.50;2.30;;;;;;;;;;5090419;28;20054;-67
2022/01/29 10:46:01;;;;;;;6.85;3.60;;;;;;;;;;5089775;28;20012;-67
2022/01/29 10:48:42;;;;;;;9.77;3.75;;;;;;;;;;5089567;28;20467;-67
2022/01/29 10:51:13;;;;;;;5.57;3.33;;;;;;;;;;5090794;28;20020;-67
2022/01/29 10:53:39;;;;;;;4.72;2.25;;;;;;;;;;5090474;28;20076;-67
2022/01/29 10:56:04;;;;;;;5.25;2.38;;;;;;;;;;5090672;28;20543;-67
2022/01/29 10:58:38;;;;;;;4.15;1.52;;;;;;;;;;5089955;28;20039;-67
2022/01/29 11:01:20;;;;;;;2.60;1.90;;;;;;;;;;5090366;28;20024;-67
2022/01/29 11:03:45;;;;;;;3.88;2.17;;;;;;;;;;5090508;28;20437;-67
2022/01/29 11:06:12;;;;;;;4.03;2.65;;;;;;;;;;5089891;28;20023;-67
2022/01/29 11:08:41;;;;;;;7.70;2.67;;;;;;;;;;5089046;28;20024;-67
2022/01/29 11:11:08;;;;;;;4.88;1.70;;;;;;;;;;5090312;28;20020;-66
2022/01/29 11:13:34;;;;;;;3.13;1.77;;;;;;;;;;5090213;28;20070;-66
2022/01/29 11:15:59;;;;;;;2.13;1.35;;;;;;;;;;5088638;28;20023;-67
2022/01/29 11:18:26;;;;;;;3.47;2.00;;;;;;;;;;5088720;28;20023;-67
2022/01/29 11:20:51;;;;;;;3.50;1.88;;;;;;;;;;5089946;28;20080;-67
2022/01/29 11:23:16;;;;;;;5.50;1.87;;;;;;;;;;5090024;28;20020;-67
2022/01/29 11:25:42;;;;;;;5.53;2.05;;;;;;;;;;5089113;28;20277;-67
2022/01/29 11:28:13;;;;;;;1.90;1.40;;;;;;;;;;5083861;28;20021;-67
2022/01/29 11:30:40;;;;;;;5.70;1.60;;;;;;;;;;5075229;28;20569;-67
2022/01/29 11:33:05;;;;;;;2.83;1.40;;;;;;;;;;5087491;28;20028;-67
2022/01/29 11:35:31;;;;;;;1.23;0.98;;;;;;;;;;5076709;28;20031;-67
2022/01/29 11:38:02;;;;;;;1.42;1.15;;;;;;;;;;5088201;28;20031;-67
2022/01/29 11:40:32;;;;;;;0.70;0.57;;;;;;;;;;5073478;28;20024;-66
2022/01/29 11:42:59;;;;;;;1.02;0.50;;;;;;;;;;5072628;28;20040;-67
2022/01/29 11:45:33;;;;;;;2.38;0.88;;;;;;;;;;5092136;28;20024;-67
2022/01/29 11:47:58;;;;;;;1.33;0.65;;;;;;;;;;5109569;28;20031;-67
2022/01/29 11:50:29;;;;;;;2.90;1.23;;;;;;;;;;5092147;28;20028;-67
2022/01/29 11:52:59;;;;;;;2.42;0.95;;;;;;;;;;5088235;28;20024;-67
2022/01/29 11:55:36;;;;;;;2.03;1.08;;;;;;;;;;5086180;28;20024;-67
2022/01/29 11:58:30;;;;;;;1.35;0.90;;;;;;;;;;5080561;28;20035;-67
2022/01/29 12:00:56;;;;;;;2.45;0.60;;;;;;;;;;5054889;28;20493;-67
2022/01/29 12:03:44;;;;;;;1.63;0.98;;;;;;;;;;5091005;28;20146;-67
2022/01/29 12:06:32;;;;;;;3.30;0.98;;;;;;;;;;5091688;28;20303;-67
2022/01/29 12:09:03;;;;;;;4.88;1.30;;;;;;;;;;5091223;28;20089;-67
2022/01/29 12:11:29;;;;;;;1.25;0.98;;;;;;;;;;5091196;28;20453;-66
2022/01/29 12:14:20;;;;;;;4.65;1.35;;;;;;;;;;5091332;28;20067;-67
2022/01/29 12:16:49;;;;;;;1.25;0.88;;;;;;;;;;5085485;28;20032;-67
2022/01/29 12:19:32;;;;;;;4.00;0.90;;;;;;;;;;5090604;28;20200;-67
2022/01/29 12:21:58;;;;;;;3.67;1.48;;;;;;;;;;5082252;28;20430;-67
2022/01/29 12:24:23;;;;;;;2.30;1.27;;;;;;;;;;5072180;28;20020;-67
2022/01/29 12:26:52;;;;;;;2.00;1.17;;;;;;;;;;5071564;28;20035;-67
2022/01/29 12:29:18;;;;;;;2.15;1.50;;;;;;;;;;5089388;28;20691;-67
2022/01/29 12:31:49;;;;;;;3.08;1.48;;;;;;;;;;5086704;28;20061;-67
2022/01/29 12:34:15;;;;;;;2.13;1.52;;;;;;;;;;5096542;28;20020;-67
2022/01/29 12:36:40;;;;;;;2.63;1.13;;;;;;;;;;5105243;28;20072;-67
2022/01/29 12:39:06;;;;;;;1.52;0.98;;;;;;;;;;5102420;28;20098;-68
2022/01/29 12:41:37;;;;;;;2.65;1.60;;;;;;;;;;5090307;28;20027;-68
2022/01/29 12:44:08;;;;;;;8.05;2.00;;;;;;;;;;5090812;28;20020;-68
2022/01/29 12:46:33;;;;;;;1.52;1.13;;;;;;;;;;5084243;28;20027;-68
2022/01/29 12:49:06;;;;;;;2.85;1.02;;;;;;;;;;5090628;28;20349;-68
2022/01/29 12:51:32;;;;;;;2.45;1.55;;;;;;;;;;5098645;28;20058;-68
2022/01/29 12:53:58;;;;;;;1.90;0.98;;;;;;;;;;5090828;28;20056;-68
2022/01/29 12:56:30;;;;;;;1.30;0.95;;;;;;;;;;5090186;28;20031;-68
2022/01/29 12:58:56;;;;;;;2.92;1.50;;;;;;;;;;5090586;28;20012;-68
2022/01/29 13:01:23;;;;;;;3.63;1.17;;;;;;;;;;5090021;28;20024;-68
2022/01/29 13:03:49;;;;;;;2.08;1.10;;;;;;;;;;5090491;28;20022;-68
2022/01/29 13:06:14;;;;;;;0.90;0.65;;;;;;;;;;5090193;28;20024;-68
2022/01/29 13:08:40;;;;;;;2.25;0.90;;;;;;;;;;5107669;28;20019;-68
2022/01/29 13:11:28;;;;;;;2.08;0.68;;;;;;;;;;5090064;28;20575;-68
2022/01/29 13:13:53;;;;;;;2.15;0.90;;;;;;;;;;5090171;28;20027;-68
2022/01/29 13:16:19;;;;;;;1.95;0.98;;;;;;;;;;5089327;28;20032;-68
2022/01/29 13:18:44;;;;;;;1.38;0.98;;;;;;;;;;5090192;28;20081;-68
2022/01/29 13:21:10;;;;;;;3.17;1.08;;;;;;;;;;5089906;28;20055;-69
2022/01/29 13:23:37;;;;;;;1.67;0.90;;;;;;;;;;5089739;28;20531;-69
2022/01/29 13:26:18;;;;;;;2.17;0.70;;;;;;;;;;5089421;28;20055;-69
2022/01/29 13:28:47;;;;;;;1.27;0.93;;;;;;;;;;5078746;28;20111;-70
2022/01/29 13:31:13;;;;;;;5.80;1.02;;;;;;;;;;5087004;28;21901;-66
2022/01/29 13:33:38;;;;;;;2.88;1.73;;;;;;;;;;5088781;28;20038;-66
2022/01/29 13:36:04;;;;;;;2.33;1.63;;;;;;;;;;5079276;28;20434;-69
2022/01/29 13:38:33;;;;;;;2.95;1.40;;;;;;;;;;5082659;28;20419;-69
2022/01/29 13:41:00;;;;;;;2.65;1.55;;;;;;;;;;5084242;28;20031;-69
2022/01/29 13:43:28;;;;;;;3.15;0.98;;;;;;;;;;5077882;28;20024;-69
2022/01/29 13:45:55;;;;;;;3.00;1.55;;;;;;;;;;5089830;28;20016;-68
2022/01/29 13:48:20;;;;;;;1.25;0.75;;;;;;;;;;5089635;28;20574;-66
2022/01/29 13:50:47;;;;;;;6.68;1.50;;;;;;;;;;5082677;28;20040;-67
2022/01/29 13:53:14;;;;;;;2.75;1.85;;;;;;;;;;5092763;28;20097;-69
2022/01/29 13:55:59;;;;;;;2.13;1.23;;;;;;;;;;5089874;28;20078;-69
2022/01/29 13:58:25;;;;;;;5.18;2.08;;;;;;;;;;5084070;28;20666;-69
2022/01/29 14:00:50;;;;;;;6.28;3.53;;;;;;;;;;5093344;28;20264;-69
2022/01/29 14:03:15;;;;;;;5.63;2.08;;;;;;;;;;5075526;28;20020;-69
2022/01/29 14:05:40;;;;;;;7.80;2.13;;;;;;;;;;5093434;28;20265;-69
2022/01/29 14:08:16;;;;;;;10.97;3.37;;;;;;;;;;5093379;28;20388;-69
2022/01/29 14:10:41;;;;;;;9.32;2.90;;;;;;;;;;5093623;28;20258;-69
2022/01/29 14:13:07;;;;;;;4.75;2.47;;;;;;;;;;5092458;28;20597;-69
2022/01/29 14:15:32;;;;;;;5.27;3.33;;;;;;;;;;5093561;28;20478;-70
2022/01/29 14:17:57;;;;;;;13.00;3.80;;;;;;;;;;5093105;28;20301;-70
2022/01/29 14:20:23;;;;;;;14.07;3.63;;;;;;;;;;5093554;28;20187;-70
2022/01/29 14:22:49;;;;;;;12.00;2.85;;;;;;;;;;5091872;28;20516;-70
2022/01/29 14:25:18;;;;;;;11.57;3.50;;;;;;;;;;5089486;28;20238;-70
2022/01/29 14:27:43;;;;;;;9.70;4.28;;;;;;;;;;5086223;28;20093;-70
2022/01/29 14:30:09;;;;;;;7.78;3.42;;;;;;;;;;5093497;28;20024;-70
2022/01/29 14:32:35;;;;;;;7.05;3.80;;;;;;;;;;5092815;28;20432;-70
2022/01/29 14:35:02;;;;;;;11.00;3.47;;;;;;;;;;5093025;28;20035;-70
2022/01/29 14:37:27;;;;;;;7.53;2.85;;;;;;;;;;5092208;28;20031;-67